Time;durP1;ratioP1;P1;durP2;ratioP2;P2;SDS_P1;SDS_P2;PMS_P1;PMS_P2;Temp;Humidity;BMP_temperature;BMP_pressure;BME280_temperature;BME280_humidity;BME280_pressure;Samples;Min_cycle;Max_cycle;Signal;HPM_P1;HPM_P2
2024/01/28 00:00:35;;;;;;;22.48;10.85;;;;;;;;;;5003892;28;119300;-74
2024/01/28 00:03:02;;;;;;;36.38;11.55;;;;;;;;;;5000899;28;93503;-73
2024/01/28 00:05:28;;;;;;;23.85;11.55;;;;;;;;;;4997649;28;92756;-73
2024/01/28 00:07:55;;;;;;;26.15;12.07;;;;;;;;;;4995582;28;92497;-73
2024/01/28 00:10:21;;;;;;;31.92;12.77;;;;;;;;;;4999454;28;96262;-73
2024/01/28 00:12:48;;;;;;;21.70;12.63;;;;;;;;;;4999930;28;93895;-73
2024/01/28 00:15:15;;;;;;;28.30;11.35;;;;;;;;;;5003486;28;92496;-73
2024/01/28 00:17:41;;;;;;;31.77;11.48;;;;;;;;;;5000627;28;93691;-69
2024/01/28 00:20:09;;;;;;;27.40;11.02;;;;;;;;;;4993571;28;93440;-72
2024/01/28 00:22:35;;;;;;;22.25;11.10;;;;;;;;;;5004987;28;96480;-73
2024/01/28 00:25:02;;;;;;;29.38;11.70;;;;;;;;;;5001722;28;93912;-73
2024/01/28 00:27:28;;;;;;;27.00;11.25;;;;;;;;;;4997824;28;91755;-73
2024/01/28 00:29:55;;;;;;;38.72;12.32;;;;;;;;;;5001382;28;92414;-73
2024/01/28 00:32:22;;;;;;;20.35;10.88;;;;;;;;;;5000638;28;93888;-73
2024/01/28 00:34:48;;;;;;;31.13;11.80;;;;;;;;;;5000182;28;95177;-73
2024/01/28 00:37:17;;;;;;;28.02;11.18;;;;;;;;;;4999387;28;97025;-73
2024/01/28 00:39:43;;;;;;;20.65;11.05;;;;;;;;;;4998652;28;93715;-73
2024/01/28 00:42:09;;;;;;;22.48;11.55;;;;;;;;;;5007525;28;92383;-73
2024/01/28 00:44:36;;;;;;;22.33;10.57;;;;;;;;;;5003387;28;94243;-73
2024/01/28 00:47:02;;;;;;;28.75;12.20;;;;;;;;;;5004294;28;92428;-73
2024/01/28 00:49:29;;;;;;;27.90;11.05;;;;;;;;;;5002359;28;93540;-73
2024/01/28 00:51:56;;;;;;;26.95;11.00;;;;;;;;;;4999493;28;92931;-73
2024/01/28 00:54:23;;;;;;;21.95;10.63;;;;;;;;;;4999658;28;92716;-73
2024/01/28 00:56:50;;;;;;;33.53;11.63;;;;;;;;;;5002918;28;93193;-73
2024/01/28 00:59:18;;;;;;;27.40;11.63;;;;;;;;;;4994412;28;97269;-73
2024/01/28 01:01:45;;;;;;;26.08;10.90;;;;;;;;;;5004604;28;92490;-73
2024/01/28 01:04:11;;;;;;;33.45;11.15;;;;;;;;;;5000461;28;93448;-73
2024/01/28 01:06:39;;;;;;;25.05;11.13;;;;;;;;;;4998774;28;92521;-73
2024/01/28 01:09:09;;;;;;;26.65;10.23;;;;;;;;;;5002086;28;93297;-73
2024/01/28 01:11:35;;;;;;;20.02;10.05;;;;;;;;;;4998567;28;93808;-73
2024/01/28 01:14:02;;;;;;;17.67;9.98;;;;;;;;;;4998109;28;93041;-73
2024/01/28 01:16:28;;;;;;;29.98;10.43;;;;;;;;;;4997563;28;93188;-73
2024/01/28 01:18:54;;;;;;;26.30;10.70;;;;;;;;;;4999866;28;93429;-73
2024/01/28 01:21:21;;;;;;;23.35;11.30;;;;;;;;;;5002700;28;92611;-73
2024/01/28 01:23:48;;;;;;;22.50;10.50;;;;;;;;;;5000349;28;95075;-74
2024/01/28 01:26:14;;;;;;;24.35;11.20;;;;;;;;;;4999505;28;93313;-73
2024/01/28 01:28:41;;;;;;;23.45;10.40;;;;;;;;;;4991828;28;92654;-73
2024/01/28 01:31:07;;;;;;;25.75;11.48;;;;;;;;;;4999413;28;93408;-73
2024/01/28 01:33:34;;;;;;;35.85;12.35;;;;;;;;;;4998262;28;92453;-73
2024/01/28 01:36:01;;;;;;;30.70;11.52;;;;;;;;;;5001242;28;93635;-73
2024/01/28 01:38:28;;;;;;;32.50;13.32;;;;;;;;;;4999919;28;93792;-73
2024/01/28 01:40:55;;;;;;;25.33;12.02;;;;;;;;;;4997872;28;92176;-73
2024/01/28 01:43:21;;;;;;;28.52;11.50;;;;;;;;;;4997663;28;93640;-72
2024/01/28 01:45:48;;;;;;;31.30;12.18;;;;;;;;;;5000520;28;93433;-73
2024/01/28 01:48:15;;;;;;;22.98;11.18;;;;;;;;;;4998202;28;94944;-74
2024/01/28 01:50:43;;;;;;;30.27;12.98;;;;;;;;;;4996031;28;93459;-73
2024/01/28 01:53:10;;;;;;;26.05;11.57;;;;;;;;;;4998044;28;93064;-74
2024/01/28 01:55:39;;;;;;;22.70;11.40;;;;;;;;;;5002505;28;93052;-74
2024/01/28 01:58:06;;;;;;;35.05;11.80;;;;;;;;;;5000209;28;93422;-73
2024/01/28 02:00:34;;;;;;;29.05;11.73;;;;;;;;;;4997550;28;92645;-73
2024/01/28 02:03:03;;;;;;;22.13;10.93;;;;;;;;;;4999077;28;93174;-73
2024/01/28 02:05:38;;;;;;;24.63;10.10;;;;;;;;;;4996288;28;93258;-73
2024/01/28 02:08:05;;;;;;;24.63;11.00;;;;;;;;;;5003500;28;92626;-73
2024/01/28 02:10:31;;;;;;;24.20;10.30;;;;;;;;;;4998441;28;93403;-73
2024/01/28 02:12:58;;;;;;;33.97;10.77;;;;;;;;;;4998686;28;94993;-73
2024/01/28 02:15:24;;;;;;;28.50;10.82;;;;;;;;;;4999458;28;95451;-74
2024/01/28 02:17:52;;;;;;;22.63;10.30;;;;;;;;;;5003050;28;93541;-74
2024/01/28 02:20:18;;;;;;;25.95;10.15;;;;;;;;;;5001669;28;92426;-73
2024/01/28 02:22:45;;;;;;;26.05;10.77;;;;;;;;;;5005598;28;92825;-72
2024/01/28 02:25:11;;;;;;;30.42;9.38;;;;;;;;;;4999944;28;93470;-73
2024/01/28 02:27:39;;;;;;;27.85;9.25;;;;;;;;;;5006397;28;93854;-73
2024/01/28 02:30:06;;;;;;;25.30;10.18;;;;;;;;;;5006892;28;93127;-73
2024/01/28 02:32:32;;;;;;;26.50;10.18;;;;;;;;;;5002409;28;94315;-73
2024/01/28 02:34:59;;;;;;;26.85;9.50;;;;;;;;;;5004199;28;93528;-73
2024/01/28 02:37:26;;;;;;;19.38;8.77;;;;;;;;;;5000500;28;96255;-73
2024/01/28 02:39:52;;;;;;;25.45;9.68;;;;;;;;;;5005156;28;92920;-73
2024/01/28 02:42:19;;;;;;;28.50;9.02;;;;;;;;;;5003150;28;93624;-73
2024/01/28 02:44:45;;;;;;;32.10;9.18;;;;;;;;;;5005965;28;93448;-73
2024/01/28 02:47:12;;;;;;;21.73;9.10;;;;;;;;;;4998602;28;92660;-73
2024/01/28 02:49:38;;;;;;;19.08;8.05;;;;;;;;;;5009381;28;93421;-73
2024/01/28 02:52:05;;;;;;;23.58;8.88;;;;;;;;;;5004241;28;92408;-73
2024/01/28 02:54:31;;;;;;;24.73;9.57;;;;;;;;;;5002564;28;93084;-73
2024/01/28 02:56:58;;;;;;;25.45;9.13;;;;;;;;;;5003780;28;94893;-74
2024/01/28 02:59:24;;;;;;;22.05;8.52;;;;;;;;;;5000836;28;92974;-73
2024/01/28 03:01:51;;;;;;;24.92;9.52;;;;;;;;;;5002571;28;95013;-74
2024/01/28 03:04:17;;;;;;;27.00;8.63;;;;;;;;;;5001724;28;93867;-73
2024/01/28 03:06:45;;;;;;;27.48;9.50;;;;;;;;;;4999085;28;92570;-73
2024/01/28 03:09:13;;;;;;;27.08;9.73;;;;;;;;;;5007818;28;92293;-73
2024/01/28 03:11:39;;;;;;;22.55;9.32;;;;;;;;;;5001904;28;93752;-74
2024/01/28 03:14:06;;;;;;;24.80;9.25;;;;;;;;;;5002922;28;94143;-73
2024/01/28 03:16:33;;;;;;;22.48;9.13;;;;;;;;;;5000825;28;93861;-73
2024/01/28 03:18:59;;;;;;;26.23;8.93;;;;;;;;;;5002785;28;91749;-74
2024/01/28 03:21:26;;;;;;;27.38;9.10;;;;;;;;;;5002541;28;95792;-73
2024/01/28 03:23:52;;;;;;;20.95;8.57;;;;;;;;;;4997905;28;93405;-73
2024/01/28 03:26:19;;;;;;;22.40;8.60;;;;;;;;;;5002436;28;94850;-73
2024/01/28 03:28:45;;;;;;;22.23;9.65;;;;;;;;;;5002071;28;95932;-72
2024/01/28 03:31:12;;;;;;;20.98;7.97;;;;;;;;;;5000613;28;93827;-73
2024/01/28 03:33:38;;;;;;;17.77;8.55;;;;;;;;;;5002768;28;92496;-74
2024/01/28 03:36:05;;;;;;;24.20;8.98;;;;;;;;;;5000036;28;93443;-74
2024/01/28 03:38:31;;;;;;;24.88;8.50;;;;;;;;;;5000309;28;92449;-73
2024/01/28 03:40:58;;;;;;;22.85;9.55;;;;;;;;;;5003908;28;93457;-73
2024/01/28 03:43:24;;;;;;;21.38;8.93;;;;;;;;;;5001212;28;92687;-72
2024/01/28 03:45:51;;;;;;;15.80;7.88;;;;;;;;;;5004303;28;92532;-74
2024/01/28 03:48:17;;;;;;;24.60;8.80;;;;;;;;;;4998127;28;93234;-73
2024/01/28 03:50:43;;;;;;;25.77;8.98;;;;;;;;;;5002740;28;95812;-68
2024/01/28 03:53:10;;;;;;;26.40;9.07;;;;;;;;;;5003085;28;92653;-68
2024/01/28 03:55:36;;;;;;;25.83;8.43;;;;;;;;;;5007374;28;92600;-68
2024/01/28 03:58:03;;;;;;;26.52;8.75;;;;;;;;;;5003233;28;92498;-68
2024/01/28 04:00:29;;;;;;;28.33;9.25;;;;;;;;;;5001627;28;92940;-68
2024/01/28 04:02:56;;;;;;;17.23;8.13;;;;;;;;;;4999351;28;94683;-69
2024/01/28 04:05:23;;;;;;;25.98;8.68;;;;;;;;;;5000130;28;92529;-68
2024/01/28 04:07:50;;;;;;;20.38;8.55;;;;;;;;;;5001117;28;93164;-68
2024/01/28 04:10:16;;;;;;;21.08;8.98;;;;;;;;;;5000936;28;93358;-68
2024/01/28 04:12:42;;;;;;;27.20;9.02;;;;;;;;;;5000438;28;93104;-68
2024/01/28 04:15:09;;;;;;;30.15;8.82;;;;;;;;;;4999655;28;95004;-68
2024/01/28 04:17:36;;;;;;;26.85;8.93;;;;;;;;;;5006608;28;94809;-68
2024/01/28 04:20:04;;;;;;;18.38;7.90;;;;;;;;;;5003121;28;93169;-68
2024/01/28 04:22:30;;;;;;;31.00;8.43;;;;;;;;;;4999293;28;93811;-68
2024/01/28 04:24:57;;;;;;;30.35;8.98;;;;;;;;;;5004318;28;92595;-69
2024/01/28 04:27:23;;;;;;;31.52;9.38;;;;;;;;;;4998038;28;93862;-68
2024/01/28 04:29:50;;;;;;;27.05;9.00;;;;;;;;;;4997884;28;93526;-68
2024/01/28 04:32:16;;;;;;;25.55;8.30;;;;;;;;;;4998891;28;91749;-68
2024/01/28 04:34:43;;;;;;;21.00;7.60;;;;;;;;;;5001608;28;92415;-68
2024/01/28 04:37:10;;;;;;;20.45;8.27;;;;;;;;;;4996302;28;93556;-68
2024/01/28 04:39:36;;;;;;;17.10;7.95;;;;;;;;;;5004227;28;94896;-68
2024/01/28 04:42:03;;;;;;;25.25;8.88;;;;;;;;;;5003101;28;93511;-68
2024/01/28 04:44:29;;;;;;;26.65;9.05;;;;;;;;;;5001681;28;92602;-69
2024/01/28 04:46:57;;;;;;;25.83;8.82;;;;;;;;;;5003704;28;93112;-68
2024/01/28 04:49:23;;;;;;;26.75;8.95;;;;;;;;;;4999548;28;93438;-68
2024/01/28 04:51:50;;;;;;;22.83;7.95;;;;;;;;;;5001731;28;92531;-68
2024/01/28 04:54:17;;;;;;;19.10;7.43;;;;;;;;;;4999843;28;96318;-69
2024/01/28 04:56:44;;;;;;;21.08;9.02;;;;;;;;;;5004987;28;92662;-68
2024/01/28 04:59:13;;;;;;;20.02;8.10;;;;;;;;;;5003982;28;92858;-68
2024/01/28 05:01:39;;;;;;;21.10;8.93;;;;;;;;;;4997129;28;93659;-73
2024/01/28 05:04:06;;;;;;;23.63;8.60;;;;;;;;;;4993437;28;95017;-72
2024/01/28 05:06:35;;;;;;;18.17;7.65;;;;;;;;;;4986608;28;95762;-73
2024/01/28 05:09:03;;;;;;;25.90;7.67;;;;;;;;;;5001673;28;93394;-73
2024/01/28 05:11:31;;;;;;;23.42;7.90;;;;;;;;;;5001385;28;92880;-73
2024/01/28 05:13:58;;;;;;;19.15;8.13;;;;;;;;;;4996701;28;94645;-74
2024/01/28 05:16:25;;;;;;;22.02;7.63;;;;;;;;;;5004442;28;93934;-73
2024/01/28 05:18:51;;;;;;;21.42;7.45;;;;;;;;;;5003128;28;92446;-73
2024/01/28 05:21:18;;;;;;;19.10;7.43;;;;;;;;;;5004270;28;93253;-73
2024/01/28 05:23:48;;;;;;;23.65;8.38;;;;;;;;;;4996203;28;92709;-73
2024/01/28 05:26:14;;;;;;;14.07;7.88;;;;;;;;;;5004581;28;93172;-73
2024/01/28 05:28:41;;;;;;;26.17;7.93;;;;;;;;;;5000146;28;96948;-74
2024/01/28 05:31:08;;;;;;;24.55;8.93;;;;;;;;;;4998372;28;92708;-73
2024/01/28 05:33:37;;;;;;;23.58;8.65;;;;;;;;;;5002224;28;93520;-74
2024/01/28 05:36:11;;;;;;;31.23;8.48;;;;;;;;;;4997731;28;92536;-74
2024/01/28 05:38:38;;;;;;;32.30;8.50;;;;;;;;;;5002359;28;92460;-73
2024/01/28 05:41:08;;;;;;;36.38;9.15;;;;;;;;;;4999192;28;93211;-73
2024/01/28 05:43:34;;;;;;;24.48;8.63;;;;;;;;;;5004442;28;93496;-74
2024/01/28 05:46:01;;;;;;;20.33;8.90;;;;;;;;;;5003476;28;93537;-74
2024/01/28 05:48:27;;;;;;;19.98;8.57;;;;;;;;;;5002015;28;93620;-73
2024/01/28 05:50:55;;;;;;;25.98;8.90;;;;;;;;;;5005255;28;92469;-72
2024/01/28 05:53:23;;;;;;;26.98;8.55;;;;;;;;;;5001664;28;94864;-73
2024/01/28 05:55:51;;;;;;;19.85;7.28;;;;;;;;;;5001143;28;93459;-73
2024/01/28 05:58:19;;;;;;;19.80;7.97;;;;;;;;;;5002870;28;92860;-73
2024/01/28 06:00:46;;;;;;;18.25;7.63;;;;;;;;;;5000461;28;93214;-73
2024/01/28 06:03:13;;;;;;;26.15;8.18;;;;;;;;;;5000866;28;92960;-73
2024/01/28 06:05:40;;;;;;;17.85;7.80;;;;;;;;;;5010767;28;92655;-73
2024/01/28 06:08:07;;;;;;;18.95;7.38;;;;;;;;;;5004218;28;94537;-73
2024/01/28 06:10:33;;;;;;;21.55;8.32;;;;;;;;;;5004166;28;92480;-74
2024/01/28 06:13:00;;;;;;;19.80;8.23;;;;;;;;;;5009099;28;93631;-72
2024/01/28 06:15:27;;;;;;;21.55;8.63;;;;;;;;;;4998155;28;93438;-73
2024/01/28 06:17:53;;;;;;;22.38;8.30;;;;;;;;;;5003253;28;94887;-74
2024/01/28 06:20:20;;;;;;;29.30;8.50;;;;;;;;;;4998996;28;98973;-72
2024/01/28 06:22:46;;;;;;;18.65;8.25;;;;;;;;;;5003430;28;93396;-73
2024/01/28 06:25:12;;;;;;;30.40;8.07;;;;;;;;;;5000625;28;92484;-73
2024/01/28 06:27:39;;;;;;;29.08;9.35;;;;;;;;;;5000216;28;93253;-74
2024/01/28 06:30:05;;;;;;;24.85;7.85;;;;;;;;;;4998377;28;92520;-73
2024/01/28 06:32:32;;;;;;;23.75;8.10;;;;;;;;;;5001072;28;93527;-73
2024/01/28 06:34:59;;;;;;;18.33;8.10;;;;;;;;;;5003683;28;92822;-72
2024/01/28 06:37:25;;;;;;;21.85;7.90;;;;;;;;;;5001658;28;93079;-73
2024/01/28 06:39:52;;;;;;;21.45;7.55;;;;;;;;;;5006881;28;96255;-74
2024/01/28 06:42:18;;;;;;;28.83;7.95;;;;;;;;;;4999140;28;95871;-73
2024/01/28 06:44:45;;;;;;;19.02;7.78;;;;;;;;;;5002871;28;92462;-72
2024/01/28 06:47:12;;;;;;;30.13;8.05;;;;;;;;;;5001010;28;93164;-73
2024/01/28 06:49:39;;;;;;;28.45;7.95;;;;;;;;;;5006694;28;93142;-73
2024/01/28 06:52:05;;;;;;;20.55;8.48;;;;;;;;;;4994339;28;95189;-73
2024/01/28 06:54:32;;;;;;;20.60;8.73;;;;;;;;;;5001886;28;93790;-73
2024/01/28 06:56:58;;;;;;;21.42;8.73;;;;;;;;;;5007523;28;92447;-73
2024/01/28 06:59:25;;;;;;;27.92;9.25;;;;;;;;;;5001220;28;93024;-73
2024/01/28 07:01:51;;;;;;;22.00;9.05;;;;;;;;;;4995039;28;93692;-73
2024/01/28 07:04:18;;;;;;;21.85;8.27;;;;;;;;;;5003087;28;92765;-73
2024/01/28 07:06:44;;;;;;;24.85;9.50;;;;;;;;;;5002039;28;95248;-73
2024/01/28 07:09:12;;;;;;;28.77;8.90;;;;;;;;;;5006209;28;93481;-72
2024/01/28 07:11:38;;;;;;;22.73;9.63;;;;;;;;;;5002776;28;92957;-73
2024/01/28 07:14:04;;;;;;;24.83;8.77;;;;;;;;;;5004266;28;93738;-73
2024/01/28 07:16:32;;;;;;;26.40;8.60;;;;;;;;;;5002500;28;92429;-73
2024/01/28 07:18:58;;;;;;;21.63;9.25;;;;;;;;;;5006085;28;93044;-73
2024/01/28 07:21:25;;;;;;;21.02;8.38;;;;;;;;;;4999556;28;93213;-68
2024/01/28 07:23:52;;;;;;;22.27;8.50;;;;;;;;;;4998261;28;91730;-68
2024/01/28 07:26:19;;;;;;;17.75;8.27;;;;;;;;;;4998641;28;92964;-69
2024/01/28 07:28:45;;;;;;;24.50;8.57;;;;;;;;;;5000325;28;93451;-68
2024/01/28 07:31:12;;;;;;;22.17;8.23;;;;;;;;;;5002876;28;94955;-68
2024/01/28 07:33:38;;;;;;;19.00;7.78;;;;;;;;;;5000351;28;93912;-68
2024/01/28 07:36:05;;;;;;;18.65;7.97;;;;;;;;;;4998420;28;92993;-68
2024/01/28 07:38:31;;;;;;;26.27;8.88;;;;;;;;;;5004727;28;94188;-68
2024/01/28 07:40:59;;;;;;;29.00;10.02;;;;;;;;;;5002104;28;93429;-68
2024/01/28 07:43:25;;;;;;;19.02;8.40;;;;;;;;;;4996252;28;92483;-68
2024/01/28 07:45:51;;;;;;;18.38;8.95;;;;;;;;;;5002018;28;93521;-68
2024/01/28 07:48:18;;;;;;;18.48;8.98;;;;;;;;;;5001164;28;94100;-69
2024/01/28 07:50:44;;;;;;;30.30;9.70;;;;;;;;;;5002856;28;92437;-68
2024/01/28 07:53:12;;;;;;;17.15;8.45;;;;;;;;;;5006311;28;93370;-68
2024/01/28 07:55:38;;;;;;;19.73;8.65;;;;;;;;;;4998907;28;94771;-68
2024/01/28 07:58:04;;;;;;;17.33;8.38;;;;;;;;;;4999117;28;95838;-69
2024/01/28 08:00:31;;;;;;;20.75;9.73;;;;;;;;;;5001555;28;93926;-69
2024/01/28 08:02:57;;;;;;;22.60;10.30;;;;;;;;;;5001583;28;92382;-69
2024/01/28 08:05:25;;;;;;;17.38;9.23;;;;;;;;;;5000210;28;93167;-67
2024/01/28 08:07:52;;;;;;;27.38;9.63;;;;;;;;;;4993594;28;93338;-69
2024/01/28 08:10:18;;;;;;;23.58;10.32;;;;;;;;;;5004205;28;92968;-67
2024/01/28 08:12:45;;;;;;;25.15;10.25;;;;;;;;;;4999819;28;93212;-68
2024/01/28 08:15:11;;;;;;;18.92;9.18;;;;;;;;;;4998634;28;93502;-68
2024/01/28 08:17:38;;;;;;;29.02;10.32;;;;;;;;;;5000989;28;93702;-68
2024/01/28 08:20:04;;;;;;;21.08;10.10;;;;;;;;;;4998624;28;96023;-67
2024/01/28 08:22:31;;;;;;;30.73;10.35;;;;;;;;;;4998367;28;92617;-68
2024/01/28 08:24:57;;;;;;;26.05;10.63;;;;;;;;;;4996251;28;93183;-67
2024/01/28 08:27:24;;;;;;;23.83;10.75;;;;;;;;;;4991376;28;93395;-69
2024/01/28 08:29:50;;;;;;;29.80;11.13;;;;;;;;;;4995779;28;92765;-69
2024/01/28 08:32:18;;;;;;;25.63;9.95;;;;;;;;;;4997376;28;93208;-68
2024/01/28 08:34:48;;;;;;;21.63;8.90;;;;;;;;;;4994451;28;93423;-68
2024/01/28 08:37:15;;;;;;;15.40;8.17;;;;;;;;;;5006854;28;91769;-68
2024/01/28 08:39:42;;;;;;;22.52;10.10;;;;;;;;;;5001632;28;92529;-68
2024/01/28 08:42:08;;;;;;;30.35;10.13;;;;;;;;;;5002715;28;92518;-68
2024/01/28 08:44:35;;;;;;;32.92;11.45;;;;;;;;;;4997679;28;94747;-69
2024/01/28 08:47:03;;;;;;;26.35;11.27;;;;;;;;;;4999800;28;94419;-68
2024/01/28 08:49:30;;;;;;;24.30;8.93;;;;;;;;;;4999666;28;92608;-69
2024/01/28 08:51:56;;;;;;;16.83;8.65;;;;;;;;;;4999185;28;93489;-69
2024/01/28 08:54:24;;;;;;;19.33;8.07;;;;;;;;;;5000057;28;93427;-68
2024/01/28 08:56:50;;;;;;;15.57;8.57;;;;;;;;;;5001298;28;93979;-69
2024/01/28 08:59:17;;;;;;;23.88;8.63;;;;;;;;;;5001185;28;92430;-68
2024/01/28 09:01:44;;;;;;;19.45;8.98;;;;;;;;;;5003413;28;91708;-69
2024/01/28 09:04:10;;;;;;;16.77;7.53;;;;;;;;;;5002510;28;93669;-69
2024/01/28 09:06:37;;;;;;;20.45;8.32;;;;;;;;;;4999722;28;94737;-68
2024/01/28 09:09:07;;;;;;;23.17;7.85;;;;;;;;;;4998846;28;94773;-68
2024/01/28 09:11:34;;;;;;;21.75;7.28;;;;;;;;;;5002213;28;95451;-72
2024/01/28 09:14:01;;;;;;;12.55;6.95;;;;;;;;;;4994120;28;93949;-69
2024/01/28 09:16:28;;;;;;;15.73;6.95;;;;;;;;;;4992797;28;92599;-70
2024/01/28 09:18:54;;;;;;;23.00;7.00;;;;;;;;;;5005713;28;93277;-70
2024/01/28 09:21:21;;;;;;;16.75;8.50;;;;;;;;;;4998799;28;92508;-70
2024/01/28 09:23:47;;;;;;;18.27;8.93;;;;;;;;;;5001699;28;93482;-69
2024/01/28 09:26:13;;;;;;;15.63;7.53;;;;;;;;;;5004752;28;94726;-70
2024/01/28 09:28:40;;;;;;;20.65;7.65;;;;;;;;;;5003139;28;92948;-70
2024/01/28 09:31:07;;;;;;;17.10;6.78;;;;;;;;;;5008189;28;93224;-70
2024/01/28 09:33:34;;;;;;;14.93;6.13;;;;;;;;;;4997652;28;95992;-70
2024/01/28 09:36:01;;;;;;;23.30;6.72;;;;;;;;;;5000138;28;92399;-70
2024/01/28 09:38:27;;;;;;;16.85;6.72;;;;;;;;;;5034097;27;93101;-70
2024/01/28 09:40:54;;;;;;;16.27;5.85;;;;;;;;;;5003528;28;93297;-74
2024/01/28 09:43:23;;;;;;;11.55;5.10;;;;;;;;;;4998593;28;93521;-73
2024/01/28 09:45:49;;;;;;;11.57;5.50;;;;;;;;;;5002254;28;93655;-71
2024/01/28 09:48:16;;;;;;;15.07;5.38;;;;;;;;;;5004599;28;92700;-70
2024/01/28 09:50:43;;;;;;;10.13;5.43;;;;;;;;;;5001477;28;93187;-72
2024/01/28 09:53:12;;;;;;;15.38;5.20;;;;;;;;;;4999682;28;93810;-69
2024/01/28 09:55:39;;;;;;;13.07;5.32;;;;;;;;;;5002071;28;92645;-74
2024/01/28 09:58:06;;;;;;;15.57;4.93;;;;;;;;;;5000833;28;94963;-73
2024/01/28 10:00:32;;;;;;;15.45;6.15;;;;;;;;;;4999175;28;92506;-75
2024/01/28 10:02:58;;;;;;;11.52;8.43;;;;;;;;;;5002599;28;92817;-71
2024/01/28 10:05:25;;;;;;;8.85;3.83;;;;;;;;;;5004995;28;94160;-71
2024/01/28 10:07:58;;;;;;;10.63;4.10;;;;;;;;;;4999035;28;92584;-75
2024/01/28 10:10:25;;;;;;;11.45;4.80;;;;;;;;;;5000674;28;94179;-73
2024/01/28 10:12:52;;;;;;;11.50;4.45;;;;;;;;;;4999610;28;93721;-75
2024/01/28 10:15:20;;;;;;;6.30;3.33;;;;;;;;;;5003831;28;91755;-73
2024/01/28 10:17:50;;;;;;;16.73;4.45;;;;;;;;;;5003092;28;95211;-76
2024/01/28 10:20:17;;;;;;;11.57;3.90;;;;;;;;;;4996281;28;93827;-72
2024/01/28 10:22:44;;;;;;;8.93;4.38;;;;;;;;;;4996002;28;94904;-71
2024/01/28 10:25:11;;;;;;;10.90;4.35;;;;;;;;;;5003443;28;95482;-72
2024/01/28 10:27:38;;;;;;;9.50;4.75;;;;;;;;;;5001332;28;92617;-72
2024/01/28 10:30:06;;;;;;;8.80;4.00;;;;;;;;;;4998925;28;93568;-73
2024/01/28 10:32:33;;;;;;;10.88;4.13;;;;;;;;;;5003625;28;93479;-73
2024/01/28 10:34:59;;;;;;;7.72;3.92;;;;;;;;;;5029482;27;92473;-72
2024/01/28 10:37:27;;;;;;;17.38;3.55;;;;;;;;;;5003874;28;93265;-72
2024/01/28 10:39:56;;;;;;;13.73;4.15;;;;;;;;;;4997684;28;93002;-73
2024/01/28 10:42:25;;;;;;;6.35;3.10;;;;;;;;;;5004017;28;92442;-73
2024/01/28 10:44:52;;;;;;;10.23;3.47;;;;;;;;;;5002330;28;93098;-72
2024/01/28 10:47:19;;;;;;;9.23;4.00;;;;;;;;;;4997696;28;96845;-72
2024/01/28 10:49:47;;;;;;;9.10;3.92;;;;;;;;;;4996878;28;95503;-72
2024/01/28 10:52:15;;;;;;;10.60;3.97;;;;;;;;;;5000885;28;93447;-73
2024/01/28 10:54:42;;;;;;;10.60;4.10;;;;;;;;;;4999039;28;92615;-73
2024/01/28 10:57:09;;;;;;;7.15;3.20;;;;;;;;;;5002609;28;93419;-73
2024/01/28 10:59:39;;;;;;;10.05;3.85;;;;;;;;;;5000396;28;93413;-73
2024/01/28 11:02:07;;;;;;;12.57;4.13;;;;;;;;;;5002854;28;92434;-73
2024/01/28 11:04:33;;;;;;;8.98;4.20;;;;;;;;;;4998665;28;93305;-73
2024/01/28 11:07:00;;;;;;;8.30;4.00;;;;;;;;;;4998080;28;93447;-72
2024/01/28 11:09:27;;;;;;;8.48;3.30;;;;;;;;;;5003547;28;92597;-72
2024/01/28 11:11:53;;;;;;;7.20;3.80;;;;;;;;;;4994534;28;96053;-73
2024/01/28 11:14:20;;;;;;;9.75;3.53;;;;;;;;;;4999342;28;92506;-73
2024/01/28 11:16:46;;;;;;;7.95;3.50;;;;;;;;;;5002812;28;93134;-73
2024/01/28 11:19:14;;;;;;;8.73;3.83;;;;;;;;;;5000945;28;92422;-73
2024/01/28 11:21:41;;;;;;;7.90;3.30;;;;;;;;;;5001278;28;92550;-73
2024/01/28 11:24:08;;;;;;;8.38;3.60;;;;;;;;;;4999803;28;92931;-74
2024/01/28 11:26:35;;;;;;;9.95;3.75;;;;;;;;;;4993890;28;93461;-74
2024/01/28 11:29:07;;;;;;;8.70;3.90;;;;;;;;;;5002684;28;91889;-73
2024/01/28 11:31:43;;;;;;;9.82;3.45;;;;;;;;;;4984584;28;93408;-73
2024/01/28 11:34:31;;;;;;;8.05;4.32;;;;;;;;;;4998986;28;95196;-74
2024/01/28 11:36:59;;;;;;;5.65;2.78;;;;;;;;;;4999891;28;95565;-74
2024/01/28 11:39:34;;;;;;;13.25;8.90;;;;;;;;;;5003453;28;93599;-74
2024/01/28 11:42:01;;;;;;;10.75;3.53;;;;;;;;;;5005515;28;92451;-74
2024/01/28 11:44:28;;;;;;;11.63;3.33;;;;;;;;;;5004741;28;93084;-74
2024/01/28 11:47:06;;;;;;;17.25;6.57;;;;;;;;;;4998010;28;92661;-73
2024/01/28 11:49:35;;;;;;;10.02;3.72;;;;;;;;;;5001902;28;92596;-73
2024/01/28 11:52:04;;;;;;;7.88;3.80;;;;;;;;;;4997708;28;93124;-73
2024/01/28 11:54:30;;;;;;;13.30;4.90;;;;;;;;;;5000945;28;91838;-72
2024/01/28 11:56:57;;;;;;;7.50;3.63;;;;;;;;;;5001410;28;93230;-72
2024/01/28 11:59:23;;;;;;;7.55;3.50;;;;;;;;;;5001331;28;95416;-72
2024/01/28 12:01:50;;;;;;;8.07;3.70;;;;;;;;;;5000977;28;94875;-75
2024/01/28 12:04:17;;;;;;;7.40;3.45;;;;;;;;;;4997928;28;95576;-74
2024/01/28 12:06:43;;;;;;;14.70;13.20;;;;;;;;;;4998032;28;93776;-73
2024/01/28 12:09:09;;;;;;;8.20;3.90;;;;;;;;;;4998370;28;92773;-72
2024/01/28 12:11:36;;;;;;;9.68;5.05;;;;;;;;;;5001530;28;95409;-72
2024/01/28 12:14:03;;;;;;;10.80;7.28;;;;;;;;;;4999501;28;93875;-73
2024/01/28 12:16:34;;;;;;;8.48;3.70;;;;;;;;;;4997186;28;93384;-73
2024/01/28 12:19:01;;;;;;;8.52;4.45;;;;;;;;;;5001498;28;92686;-73
2024/01/28 12:21:27;;;;;;;12.98;9.02;;;;;;;;;;5004522;28;92527;-72
2024/01/28 12:23:56;;;;;;;13.77;10.85;;;;;;;;;;5001054;28;93677;-73
2024/01/28 12:26:23;;;;;;;12.53;10.63;;;;;;;;;;4995042;28;95097;-73
2024/01/28 12:28:51;;;;;;;11.07;5.75;;;;;;;;;;5002120;28;92467;-74
2024/01/28 12:31:18;;;;;;;19.27;17.10;;;;;;;;;;5003849;28;93864;-73
2024/01/28 12:33:44;;;;;;;9.90;6.15;;;;;;;;;;5000759;28;93714;-73
2024/01/28 12:36:11;;;;;;;16.50;10.30;;;;;;;;;;4998988;28;92557;-73
2024/01/28 12:38:41;;;;;;;10.30;6.07;;;;;;;;;;5000824;28;93495;-73
2024/01/28 12:41:08;;;;;;;9.85;4.97;;;;;;;;;;5003464;28;92478;-71
2024/01/28 12:43:36;;;;;;;12.93;6.75;;;;;;;;;;5002039;28;94011;-72
2024/01/28 12:46:03;;;;;;;11.63;6.55;;;;;;;;;;4999794;28;93476;-73
2024/01/28 12:48:29;;;;;;;8.18;4.28;;;;;;;;;;5001191;28;92486;-73
2024/01/28 12:50:56;;;;;;;13.02;9.07;;;;;;;;;;4997258;28;95127;-73
2024/01/28 12:53:22;;;;;;;11.35;9.27;;;;;;;;;;4996644;28;93822;-73
2024/01/28 12:55:48;;;;;;;8.32;5.25;;;;;;;;;;4996937;28;92441;-72
2024/01/28 12:58:15;;;;;;;10.05;5.68;;;;;;;;;;5005688;28;94562;-76
2024/01/28 13:00:41;;;;;;;10.02;5.32;;;;;;;;;;4995422;28;92595;-76
2024/01/28 13:03:08;;;;;;;10.60;8.40;;;;;;;;;;4996904;28;94008;-75
2024/01/28 13:05:35;;;;;;;8.77;4.57;;;;;;;;;;5003901;28;93603;-75
2024/01/28 13:08:02;;;;;;;9.32;3.97;;;;;;;;;;4994610;28;92123;-76
2024/01/28 13:10:28;;;;;;;12.43;4.15;;;;;;;;;;4999833;28;93452;-74
2024/01/28 13:12:55;;;;;;;9.10;4.18;;;;;;;;;;5000205;28;93766;-74
2024/01/28 13:15:22;;;;;;;7.28;3.58;;;;;;;;;;4999473;28;94772;-75
2024/01/28 13:17:49;;;;;;;8.02;3.63;;;;;;;;;;5003231;28;95983;-70
2024/01/28 13:20:15;;;;;;;7.85;3.55;;;;;;;;;;5000423;28;92633;-70
2024/01/28 13:22:42;;;;;;;10.50;3.60;;;;;;;;;;5000133;28;93459;-70
2024/01/28 13:25:12;;;;;;;5.35;2.95;;;;;;;;;;5002098;28;94604;-71
2024/01/28 13:27:39;;;;;;;6.05;3.35;;;;;;;;;;4997367;28;92550;-71
2024/01/28 13:30:06;;;;;;;7.97;3.30;;;;;;;;;;4998730;28;93245;-72
2024/01/28 13:32:34;;;;;;;6.75;3.33;;;;;;;;;;4998522;28;92720;-70
2024/01/28 13:35:01;;;;;;;9.57;3.75;;;;;;;;;;5001294;28;92743;-70
2024/01/28 13:37:28;;;;;;;7.95;3.22;;;;;;;;;;5002784;28;93104;-70
2024/01/28 13:39:54;;;;;;;6.53;3.40;;;;;;;;;;4997179;28;95964;-71
2024/01/28 13:42:21;;;;;;;8.75;3.47;;;;;;;;;;5000064;28;95801;-70
2024/01/28 13:44:47;;;;;;;5.82;3.00;;;;;;;;;;4999270;28;93391;-71
2024/01/28 13:47:14;;;;;;;7.13;3.38;;;;;;;;;;5002883;28;92676;-71
2024/01/28 13:49:40;;;;;;;6.25;3.35;;;;;;;;;;4997794;28;96620;-70
2024/01/28 13:52:07;;;;;;;6.50;3.00;;;;;;;;;;5001093;28;93416;-70
2024/01/28 13:54:33;;;;;;;6.95;2.97;;;;;;;;;;5001564;28;92633;-71
2024/01/28 13:57:01;;;;;;;6.63;2.78;;;;;;;;;;4997319;28;93086;-72
2024/01/28 13:59:27;;;;;;;9.45;2.90;;;;;;;;;;4999058;28;93963;-72
2024/01/28 14:01:53;;;;;;;5.20;2.38;;;;;;;;;;5004040;28;92435;-69
2024/01/28 14:04:20;;;;;;;3.72;2.20;;;;;;;;;;4998558;28;95767;-69
2024/01/28 14:06:47;;;;;;;8.48;2.83;;;;;;;;;;4997614;28;92732;-71
2024/01/28 14:09:16;;;;;;;5.85;2.80;;;;;;;;;;5001592;28;93110;-72
2024/01/28 14:11:43;;;;;;;6.72;2.83;;;;;;;;;;4999064;28;93647;-67
2024/01/28 14:14:09;;;;;;;7.53;2.72;;;;;;;;;;5001937;28;92731;-72
2024/01/28 14:16:36;;;;;;;6.72;2.95;;;;;;;;;;4997095;28;93648;-75
2024/01/28 14:19:02;;;;;;;6.45;3.13;;;;;;;;;;5001562;28;92567;-77
2024/01/28 14:21:29;;;;;;;4.25;2.33;;;;;;;;;;5004410;28;91791;-76
2024/01/28 14:23:55;;;;;;;9.55;3.08;;;;;;;;;;5004506;28;92548;-70
2024/01/28 14:26:22;;;;;;;5.63;3.30;;;;;;;;;;5001499;28;92481;-73